LEIB/IBZ METAR and TAF weather

Enter ICAO airport designator
Station Type Date Time Source
LEIB METAR 2022/01/19 20:30 UTC NOAA

LEIB 192030Z 00000KT 9999 FEW035 08/04 Q1029 NOSIG


Station Type Date Time Source
LEIB Decoded METAR 2022/01/19 20:30 UTC NOAA

Ibiza / Es Codola, Spain (LEIB) 38-52N 001-23E 12M
Jan 19, 2022 - 03:30 PM EST / 2022.01.19 2030 UTC
Wind: Calm:0
Visibility: greater than 7 mile(s):0
Sky conditions: mostly clear
Temperature: 46 F (8 C)
Dew Point: 39 F (4 C)
Relative Humidity: 75%
Pressure (altimeter): 30.39 in. Hg (1029 hPa)
ob: LEIB 192030Z 00000KT 9999 FEW035 08/04 Q1029 NOSIG
cycle: 20

Station Type Date Time Source
LEIB TAF 2022/01/19 21:29 UTC NOAA

TAF LEIB 192000Z 1921/2021 35005KT 9999 FEW030 TX14/2012Z TN02/2006Z
BECMG 2008/2011 07010KT
BECMG 2016/2018 01005KT

Example: see airport list